Time;durP1;ratioP1;P1;durP2;ratioP2;P2;SDS_P1;SDS_P2;PMS_P1;PMS_P2;Temp;Humidity;BMP_temperature;BMP_pressure;BME280_temperature;BME280_humidity;BME280_pressure;Samples;Min_cycle;Max_cycle;Signal;HPM_P1;HPM_P2
2024/01/22 00:02:11;;;;;;;30.20;14.77;;;0.60;99.90;;;;;;5039946;28;20205;-81
2024/01/22 00:04:58;;;;;;;30.57;14.27;;;0.50;99.90;;;;;;5039855;28;20331;-81
2024/01/22 00:07:46;;;;;;;31.43;13.60;;;0.50;99.90;;;;;;5053998;28;20233;-81
2024/01/22 00:10:35;;;;;;;32.63;14.60;;;0.40;99.90;;;;;;5054090;28;20200;-80
2024/01/22 00:13:22;;;;;;;32.90;14.10;;;0.40;99.90;;;;;;5053507;28;20206;-81
2024/01/22 00:16:11;;;;;;;27.67;14.07;;;0.40;99.90;;;;;;5053816;28;20191;-81
2024/01/22 00:18:58;;;;;;;30.80;14.30;;;0.40;99.90;;;;;;5054594;28;20202;-81
2024/01/22 00:21:47;;;;;;;33.97;14.37;;;0.40;99.90;;;;;;5053177;28;20573;-81
2024/01/22 00:24:34;;;;;;;32.40;14.37;;;0.40;99.90;;;;;;5053723;28;20213;-81
2024/01/22 00:27:21;;;;;;;31.47;14.37;;;0.40;99.90;;;;;;5053661;28;20683;-81
2024/01/22 00:30:10;;;;;;;29.00;13.07;;;0.40;99.90;;;;;;5053707;28;20205;-81
2024/01/22 00:32:59;;;;;;;32.93;14.23;;;0.40;99.90;;;;;;5052806;28;20235;-81
2024/01/22 00:35:46;;;;;;;32.43;14.07;;;0.40;99.90;;;;;;5039423;28;20191;-80
2024/01/22 00:38:34;;;;;;;30.60;13.17;;;0.40;99.90;;;;;;5053618;28;20275;-81
2024/01/22 00:41:21;;;;;;;31.13;13.27;;;0.40;99.90;;;;;;5038619;28;20573;-81
2024/01/22 00:44:08;;;;;;;30.70;13.63;;;0.40;99.90;;;;;;5053372;28;20697;-81
2024/01/22 00:46:56;;;;;;;31.53;13.43;;;0.40;99.90;;;;;;5039304;28;20331;-81
2024/01/22 00:49:43;;;;;;;29.40;13.23;;;0.40;99.90;;;;;;5053316;28;20199;-81
2024/01/22 00:52:31;;;;;;;30.23;13.53;;;0.40;99.90;;;;;;5053248;28;20274;-80
2024/01/22 00:55:18;;;;;;;26.53;12.90;;;0.30;99.90;;;;;;5052608;28;20259;-81
2024/01/22 00:58:06;;;;;;;28.27;12.90;;;0.30;99.90;;;;;;5053190;28;20214;-80
2024/01/22 01:00:54;;;;;;;33.10;12.87;;;0.30;99.90;;;;;;5053236;28;20665;-81
2024/01/22 01:03:41;;;;;;;29.53;13.00;;;0.20;99.90;;;;;;5053202;28;20230;-81
2024/01/22 01:06:29;;;;;;;34.37;13.77;;;0.20;99.90;;;;;;5034566;28;20663;-81
2024/01/22 01:09:16;;;;;;;32.90;13.00;;;0.20;99.90;;;;;;5033595;28;20720;-81
2024/01/22 01:12:04;;;;;;;29.13;13.37;;;0.20;99.90;;;;;;5019295;28;20229;-81
2024/01/22 01:14:51;;;;;;;27.00;12.63;;;0.20;99.90;;;;;;5032755;28;20308;-80
2024/01/22 01:17:39;;;;;;;32.67;13.33;;;0.10;99.90;;;;;;5033077;28;20225;-81
2024/01/22 01:20:26;;;;;;;27.30;12.90;;;0.10;99.90;;;;;;5033735;28;20196;-81
2024/01/22 01:23:14;;;;;;;30.80;12.67;;;0.10;99.90;;;;;;5018844;28;20365;-81
2024/01/22 01:26:01;;;;;;;31.30;13.33;;;0.10;99.90;;;;;;5033104;28;20201;-81
2024/01/22 01:28:48;;;;;;;28.87;11.93;;;0.10;99.90;;;;;;5032577;28;20336;-81
2024/01/22 01:31:39;;;;;;;28.73;12.53;;;0.00;99.90;;;;;;5032571;28;20200;-80
2024/01/22 01:34:26;;;;;;;26.53;12.30;;;0.00;99.90;;;;;;5033117;28;20341;-81
2024/01/22 01:37:14;;;;;;;28.37;12.83;;;0.00;99.90;;;;;;5032210;28;20195;-81
2024/01/22 01:40:01;;;;;;;29.43;12.90;;;-0.10;99.90;;;;;;5033008;28;20602;-80
2024/01/22 01:42:48;;;;;;;26.60;12.20;;;-0.10;99.90;;;;;;5033351;28;20373;-80
2024/01/22 01:45:35;;;;;;;29.60;13.10;;;-0.10;99.90;;;;;;5032891;28;20653;-80
2024/01/22 01:48:23;;;;;;;26.20;12.17;;;-0.10;99.90;;;;;;5033339;28;20241;-81
2024/01/22 01:51:11;;;;;;;29.63;12.13;;;-0.10;99.90;;;;;;5032701;28;20199;-80
2024/01/22 01:54:01;;;;;;;31.40;12.57;;;-0.10;99.90;;;;;;5032208;28;20206;-81
2024/01/22 01:56:49;;;;;;;29.30;12.40;;;-0.20;99.90;;;;;;5033598;28;20629;-80
2024/01/22 01:59:39;;;;;;;25.73;11.97;;;-0.20;99.90;;;;;;5031986;28;20192;-81
2024/01/22 02:02:27;;;;;;;25.53;11.73;;;-0.20;99.90;;;;;;5031894;28;20208;-80
2024/01/22 02:05:16;;;;;;;22.70;11.60;;;-0.20;99.90;;;;;;5045041;28;20232;-81
2024/01/22 02:08:04;;;;;;;25.07;12.00;;;-0.20;99.90;;;;;;5037432;28;20190;-81
2024/01/22 02:10:51;;;;;;;26.50;11.33;;;-0.20;99.90;;;;;;5052342;28;20200;-80
2024/01/22 02:13:39;;;;;;;24.13;11.50;;;-0.20;99.90;;;;;;5051874;28;20682;-80
2024/01/22 02:16:26;;;;;;;24.07;11.13;;;-0.20;99.90;;;;;;5052280;28;20197;-81
2024/01/22 02:19:13;;;;;;;25.17;11.37;;;-0.20;99.90;;;;;;5051664;28;20201;-81
2024/01/22 02:22:01;;;;;;;24.73;11.80;;;-0.20;99.90;;;;;;5052190;28;20197;-80
2024/01/22 02:24:48;;;;;;;24.33;11.33;;;-0.20;99.90;;;;;;5051510;28;20228;-80
2024/01/22 02:27:35;;;;;;;23.20;10.90;;;-0.20;99.90;;;;;;5051431;28;20216;-81
2024/01/22 02:30:23;;;;;;;25.77;11.27;;;-0.20;99.90;;;;;;5037464;28;20202;-80
2024/01/22 02:33:11;;;;;;;24.33;10.97;;;-0.30;99.90;;;;;;5051721;28;20224;-80
2024/01/22 02:35:58;;;;;;;23.27;11.03;;;-0.30;99.90;;;;;;5052724;28;20210;-80
2024/01/22 02:38:45;;;;;;;25.10;10.70;;;-0.30;99.90;;;;;;5051479;28;20192;-80
2024/01/22 02:41:33;;;;;;;25.77;11.57;;;-0.30;99.90;;;;;;5036863;28;20223;-81
2024/01/22 02:44:20;;;;;;;22.10;10.43;;;-0.30;99.90;;;;;;5037818;28;20266;-81
2024/01/22 02:47:08;;;;;;;24.27;11.53;;;-0.30;99.90;;;;;;5051453;28;20279;-81
2024/01/22 02:49:55;;;;;;;24.63;10.63;;;-0.30;99.90;;;;;;5051523;28;20660;-81
2024/01/22 02:52:42;;;;;;;23.47;11.00;;;-0.40;99.90;;;;;;5051365;28;20194;-81
2024/01/22 02:55:30;;;;;;;24.53;10.40;;;-0.30;99.90;;;;;;5037695;28;20187;-81
2024/01/22 02:58:17;;;;;;;22.97;10.50;;;-0.40;99.90;;;;;;5051479;28;20649;-81
2024/01/22 03:01:04;;;;;;;23.80;10.03;;;-0.40;99.90;;;;;;5051307;28;20191;-81
2024/01/22 03:03:51;;;;;;;20.07;10.40;;;-0.40;99.90;;;;;;5051488;28;20225;-81
2024/01/22 03:06:39;;;;;;;24.93;10.40;;;-0.40;99.90;;;;;;5051353;28;20204;-81
2024/01/22 03:09:27;;;;;;;20.93;9.97;;;-0.40;99.90;;;;;;5037645;28;20202;-81
2024/01/22 03:12:14;;;;;;;21.87;10.10;;;-0.30;99.90;;;;;;5051741;28;20229;-81
2024/01/22 03:15:02;;;;;;;19.33;10.07;;;-0.30;99.90;;;;;;5037657;28;20211;-81
2024/01/22 03:17:49;;;;;;;19.87;9.93;;;-0.30;99.90;;;;;;5036473;28;20638;-81
2024/01/22 03:20:37;;;;;;;23.30;10.17;;;-0.30;99.90;;;;;;5051185;28;20193;-81
2024/01/22 03:23:25;;;;;;;21.60;9.53;;;-0.40;99.90;;;;;;5036434;28;20217;-81
2024/01/22 03:26:22;;;;;;;24.40;10.23;;;-0.30;99.90;;;;;;5051576;28;20216;-81
2024/01/22 03:29:10;;;;;;;22.67;9.20;;;-0.40;99.90;;;;;;5036308;28;20220;-81
2024/01/22 03:31:57;;;;;;;22.07;9.53;;;-0.40;99.90;;;;;;5036454;28;20304;-81
2024/01/22 03:34:44;;;;;;;22.07;9.60;;;-0.40;99.90;;;;;;5051642;28;20281;-81
2024/01/22 03:37:32;;;;;;;22.40;9.90;;;-0.30;99.90;;;;;;5038825;28;20194;-81
2024/01/22 03:40:20;;;;;;;20.27;9.03;;;-0.30;99.90;;;;;;5051593;28;20202;-81
2024/01/22 03:43:07;;;;;;;21.27;9.63;;;-0.30;99.90;;;;;;5038541;28;20759;-82
2024/01/22 03:45:55;;;;;;;18.87;9.17;;;-0.30;99.90;;;;;;5056630;28;20571;-81
2024/01/22 03:48:42;;;;;;;21.00;9.07;;;-0.30;99.90;;;;;;5054231;28;20657;-81
2024/01/22 03:51:29;;;;;;;20.23;9.13;;;-0.30;99.90;;;;;;5054684;28;20296;-81
2024/01/22 03:54:17;;;;;;;22.53;9.57;;;-0.20;99.90;;;;;;5055014;28;20192;-82
2024/01/22 03:57:07;;;;;;;23.57;9.73;;;-0.20;99.90;;;;;;5040021;28;20214;-81
2024/01/22 03:59:54;;;;;;;19.17;9.17;;;-0.20;99.90;;;;;;5041232;28;20279;-82
2024/01/22 04:02:42;;;;;;;18.63;8.30;;;-0.20;99.90;;;;;;5055097;28;20276;-81
2024/01/22 04:05:29;;;;;;;20.23;9.07;;;-0.20;99.90;;;;;;5055266;28;20233;-81
2024/01/22 04:08:17;;;;;;;17.93;8.77;;;-0.20;99.90;;;;;;5054697;28;20201;-81
2024/01/22 04:11:04;;;;;;;21.67;9.43;;;-0.20;99.90;;;;;;5055006;28;20783;-81
2024/01/22 04:13:51;;;;;;;20.20;8.70;;;-0.30;99.90;;;;;;5054548;28;20304;-81
2024/01/22 04:16:39;;;;;;;21.53;9.33;;;-0.30;99.90;;;;;;5054508;28;20195;-81
2024/01/22 04:19:26;;;;;;;20.53;8.93;;;-0.30;99.90;;;;;;5040569;28;20216;-81
2024/01/22 04:22:14;;;;;;;21.10;9.40;;;-0.40;99.90;;;;;;5055003;28;20651;-81
2024/01/22 04:25:01;;;;;;;23.07;9.90;;;-0.40;99.90;;;;;;5054241;28;20340;-81
2024/01/22 04:27:48;;;;;;;20.93;9.03;;;-0.40;99.90;;;;;;5039493;28;20225;-82
2024/01/22 04:30:36;;;;;;;21.80;9.17;;;-0.30;99.90;;;;;;5054282;28;20276;-81
2024/01/22 04:33:27;;;;;;;22.30;9.20;;;-0.40;99.90;;;;;;5040650;28;20201;-81
2024/01/22 04:36:15;;;;;;;19.27;8.90;;;-0.40;99.90;;;;;;5055016;28;20191;-81
2024/01/22 04:39:03;;;;;;;20.97;9.60;;;-0.40;99.90;;;;;;5053986;28;20195;-81
2024/01/22 04:41:50;;;;;;;22.67;9.33;;;-0.40;99.90;;;;;;5055058;28;20288;-81
2024/01/22 04:44:38;;;;;;;21.90;9.37;;;-0.50;99.90;;;;;;5039636;28;20221;-81
2024/01/22 04:47:25;;;;;;;19.80;9.43;;;-0.50;99.90;;;;;;5055097;28;20214;-81
2024/01/22 04:50:13;;;;;;;19.80;9.33;;;-0.50;99.90;;;;;;5053323;28;20204;-81
2024/01/22 04:53:00;;;;;;;18.83;9.20;;;-0.60;99.90;;;;;;5054428;28;20714;-81
2024/01/22 04:55:48;;;;;;;19.70;9.23;;;-0.60;99.90;;;;;;5053900;28;20199;-81
2024/01/22 04:58:35;;;;;;;18.27;8.83;;;-0.50;99.90;;;;;;5053206;28;20633;-81
2024/01/22 05:01:22;;;;;;;23.90;10.20;;;-0.60;99.90;;;;;;5054202;28;20225;-81
2024/01/22 05:04:09;;;;;;;20.43;9.27;;;-0.50;99.90;;;;;;5025134;28;20845;-81
2024/01/22 05:06:57;;;;;;;19.13;8.87;;;-0.60;99.90;;;;;;5052002;28;20243;-81
2024/01/22 05:09:44;;;;;;;22.60;9.83;;;-0.60;99.90;;;;;;5053037;28;20215;-81
2024/01/22 05:12:32;;;;;;;23.50;9.57;;;-0.70;99.90;;;;;;5053396;28;20207;-81
2024/01/22 05:15:19;;;;;;;19.77;8.80;;;-0.70;99.90;;;;;;5053425;28;20299;-81
2024/01/22 05:18:07;;;;;;;21.57;9.27;;;-0.70;99.90;;;;;;5051827;28;20574;-81
2024/01/22 05:20:54;;;;;;;19.87;9.53;;;-0.70;99.90;;;;;;5039717;28;20257;-81
2024/01/22 05:23:42;;;;;;;19.97;8.60;;;-0.70;99.90;;;;;;5053082;28;20231;-81
2024/01/22 05:26:29;;;;;;;19.50;9.30;;;-0.80;99.90;;;;;;5052539;28;20240;-80
2024/01/22 05:29:17;;;;;;;20.33;9.47;;;-0.80;99.90;;;;;;5053073;28;20198;-81
2024/01/22 05:32:04;;;;;;;19.37;8.67;;;-0.80;99.90;;;;;;5039003;28;20188;-80
2024/01/22 05:34:52;;;;;;;20.23;8.63;;;-0.80;99.90;;;;;;5053308;28;20562;-80
2024/01/22 05:37:39;;;;;;;19.83;9.10;;;-0.90;99.90;;;;;;5038294;28;20712;-81
2024/01/22 05:40:27;;;;;;;19.20;8.60;;;-0.90;99.90;;;;;;5038277;28;20194;-80
2024/01/22 05:43:14;;;;;;;18.07;9.17;;;-0.80;99.90;;;;;;5053311;28;20215;-81
2024/01/22 05:46:01;;;;;;;19.60;9.00;;;-0.80;99.90;;;;;;5052222;28;20200;-81
2024/01/22 05:48:49;;;;;;;21.33;8.67;;;-0.70;99.90;;;;;;5038510;28;20211;-81
2024/01/22 05:51:37;;;;;;;16.63;8.40;;;-0.70;99.90;;;;;;5052646;28;20192;-81
2024/01/22 05:54:24;;;;;;;20.27;8.87;;;-0.70;99.90;;;;;;5052134;28;20202;-81
2024/01/22 05:57:11;;;;;;;17.10;8.07;;;-0.60;99.90;;;;;;5052042;28;20215;-81
2024/01/22 05:59:59;;;;;;;15.83;8.10;;;-0.60;99.90;;;;;;5052100;28;20242;-81
2024/01/22 06:02:47;;;;;;;16.57;7.93;;;-0.70;99.90;;;;;;5052170;28;20201;-81
2024/01/22 06:05:36;;;;;;;18.40;7.63;;;-0.70;99.90;;;;;;5052475;28;20238;-81
2024/01/22 06:08:24;;;;;;;21.13;8.00;;;-0.60;99.90;;;;;;5051566;28;20199;-81
2024/01/22 06:11:12;;;;;;;16.37;7.43;;;-0.70;99.90;;;;;;5051928;28;20224;-81
2024/01/22 06:13:59;;;;;;;18.13;7.90;;;-0.60;99.90;;;;;;5050850;28;20652;-81
2024/01/22 06:16:49;;;;;;;18.40;7.70;;;-0.70;99.90;;;;;;5037989;28;20203;-81
2024/01/22 06:19:36;;;;;;;18.47;8.00;;;-0.70;99.90;;;;;;5052830;28;20211;-81
2024/01/22 06:22:24;;;;;;;15.73;7.57;;;-0.60;99.90;;;;;;5052867;28;20187;-81
2024/01/22 06:25:11;;;;;;;15.77;7.50;;;-0.60;99.90;;;;;;5052185;28;20220;-82
2024/01/22 06:27:59;;;;;;;17.97;7.70;;;-0.60;99.90;;;;;;5037934;28;20283;-82
2024/01/22 06:30:46;;;;;;;17.53;7.50;;;-0.50;99.90;;;;;;5051559;28;20229;-82
2024/01/22 06:33:35;;;;;;;15.63;7.13;;;-0.60;99.90;;;;;;5050588;28;20264;-82
2024/01/22 06:36:22;;;;;;;16.57;7.20;;;-0.60;99.90;;;;;;5036355;28;20225;-82
2024/01/22 06:39:10;;;;;;;18.47;7.20;;;-0.60;99.90;;;;;;5037864;28;20213;-82
2024/01/22 06:41:57;;;;;;;16.93;7.27;;;-0.60;99.90;;;;;;5052641;28;20213;-82
2024/01/22 06:44:45;;;;;;;15.73;6.93;;;-0.50;99.90;;;;;;5052721;28;20228;-82
2024/01/22 06:47:34;;;;;;;14.60;6.83;;;-0.50;99.90;;;;;;5051336;28;20285;-81
2024/01/22 06:50:23;;;;;;;15.20;6.67;;;-0.50;99.90;;;;;;5052248;28;20192;-82
2024/01/22 06:53:10;;;;;;;13.10;6.50;;;-0.50;99.90;;;;;;5050891;28;20720;-81
2024/01/22 06:55:58;;;;;;;14.20;6.57;;;-0.50;99.90;;;;;;5051374;28;20566;-82
2024/01/22 06:58:46;;;;;;;16.63;6.63;;;-0.40;99.90;;;;;;5038458;28;20651;-82
2024/01/22 07:01:33;;;;;;;15.03;6.47;;;-0.30;99.90;;;;;;5052451;28;20283;-82
2024/01/22 07:04:20;;;;;;;15.47;6.10;;;-0.30;99.90;;;;;;5050503;28;20270;-82
2024/01/22 07:07:08;;;;;;;14.73;6.13;;;-0.30;99.90;;;;;;5037694;28;20286;-82
2024/01/22 07:09:56;;;;;;;13.47;6.83;;;-0.20;99.90;;;;;;5052274;28;20520;-83
2024/01/22 07:12:43;;;;;;;12.63;6.20;;;-0.10;99.90;;;;;;5051223;28;20210;-82
2024/01/22 07:15:31;;;;;;;11.83;5.97;;;-0.10;99.90;;;;;;5051728;28;20633;-82
2024/01/22 07:18:19;;;;;;;15.53;6.10;;;0.00;99.90;;;;;;5052716;28;20198;-83
2024/01/22 07:21:06;;;;;;;12.87;6.20;;;0.10;99.90;;;;;;5055526;28;20220;-82
2024/01/22 07:23:54;;;;;;;11.83;6.07;;;0.20;99.90;;;;;;5055287;28;20195;-82
2024/01/22 07:26:42;;;;;;;15.10;6.47;;;0.30;99.90;;;;;;5055336;28;20222;-82
2024/01/22 07:29:30;;;;;;;15.13;6.03;;;0.40;99.90;;;;;;5041454;28;20390;-83
2024/01/22 07:32:17;;;;;;;11.97;5.70;;;0.50;99.90;;;;;;5054861;28;20222;-83
2024/01/22 07:35:09;;;;;;;12.10;6.00;;;0.60;99.90;;;;;;5055286;28;20210;-82
2024/01/22 07:37:59;;;;;;;14.13;5.90;;;0.60;99.90;;;;;;5054727;28;20206;-82
2024/01/22 07:40:46;;;;;;;11.67;5.57;;;0.70;99.90;;;;;;5040503;28;20272;-82
2024/01/22 07:43:33;;;;;;;14.10;6.17;;;0.80;99.90;;;;;;5055112;28;20674;-82
2024/01/22 07:46:21;;;;;;;15.57;6.47;;;0.90;99.90;;;;;;5055664;28;20677;-82
2024/01/22 07:49:08;;;;;;;12.57;5.90;;;0.90;99.90;;;;;;5041265;28;20198;-82
2024/01/22 07:51:55;;;;;;;12.70;6.00;;;0.90;99.90;;;;;;5055105;28;20193;-82
2024/01/22 07:54:43;;;;;;;17.53;6.90;;;1.00;99.90;;;;;;5054933;28;20201;-82
2024/01/22 07:57:31;;;;;;;13.87;6.27;;;1.10;99.90;;;;;;5055365;28;20243;-82
2024/01/22 08:00:19;;;;;;;13.53;5.90;;;1.20;99.90;;;;;;5039440;28;20700;-82
2024/01/22 08:03:06;;;;;;;12.77;6.20;;;1.20;99.90;;;;;;5054196;28;20198;-82
2024/01/22 08:05:54;;;;;;;11.60;6.07;;;1.20;99.90;;;;;;5054426;28;20624;-82
2024/01/22 08:08:41;;;;;;;17.27;6.57;;;1.20;99.90;;;;;;5053400;28;20289;-83
2024/01/22 08:11:29;;;;;;;14.63;6.03;;;1.30;99.90;;;;;;5040422;28;20301;-82
2024/01/22 08:14:16;;;;;;;14.27;6.10;;;1.40;99.90;;;;;;5055659;28;20198;-82
2024/01/22 08:17:03;;;;;;;15.10;6.60;;;1.20;99.90;;;;;;5055013;28;20277;-82
2024/01/22 08:19:50;;;;;;;13.23;5.77;;;1.30;99.90;;;;;;5055416;28;20188;-83
2024/01/22 08:22:38;;;;;;;13.90;6.43;;;1.40;99.90;;;;;;5055714;28;20201;-82
2024/01/22 08:25:28;;;;;;;12.27;5.80;;;1.40;99.90;;;;;;5054132;28;20704;-82
2024/01/22 08:28:16;;;;;;;14.97;6.63;;;1.40;99.90;;;;;;5060517;28;20174;-82
2024/01/22 08:31:03;;;;;;;15.77;6.67;;;1.50;99.90;;;;;;5052515;28;20278;-82
2024/01/22 08:33:51;;;;;;;16.00;6.23;;;1.60;99.90;;;;;;5068689;28;20578;-85
2024/01/22 08:36:39;;;;;;;12.37;6.33;;;1.60;99.90;;;;;;5051683;28;20181;-82
2024/01/22 08:39:26;;;;;;;16.47;6.30;;;1.60;99.90;;;;;;5059837;28;20563;-84
2024/01/22 08:42:13;;;;;;;14.80;5.93;;;1.60;99.90;;;;;;5041380;28;20675;-85
2024/01/22 08:45:01;;;;;;;13.97;6.70;;;1.50;99.90;;;;;;5057913;28;20227;-80
2024/01/22 08:47:49;;;;;;;14.07;6.70;;;1.60;99.90;;;;;;5039009;28;20804;-80
2024/01/22 08:50:37;;;;;;;14.67;6.60;;;1.60;99.90;;;;;;5039160;28;20655;-80
2024/01/22 08:53:24;;;;;;;12.57;5.77;;;1.70;99.90;;;;;;5054304;28;20617;-80
2024/01/22 08:56:13;;;;;;;12.77;5.93;;;1.80;99.90;;;;;;5053513;28;20572;-79
2024/01/22 08:59:01;;;;;;;14.83;6.53;;;1.80;99.90;;;;;;5039557;28;20654;-81
2024/01/22 09:01:49;;;;;;;14.40;6.30;;;1.80;99.90;;;;;;5039564;28;20198;-80
2024/01/22 09:04:39;;;;;;;13.30;6.23;;;1.80;99.90;;;;;;5053172;28;20365;-80
2024/01/22 09:07:26;;;;;;;15.13;6.67;;;1.80;99.90;;;;;;5053599;28;20188;-80
2024/01/22 09:10:15;;;;;;;14.20;6.43;;;1.90;99.90;;;;;;5053901;28;20669;-80
2024/01/22 09:13:03;;;;;;;13.53;6.50;;;2.00;99.90;;;;;;5052843;28;20705;-81
2024/01/22 09:15:52;;;;;;;12.57;5.83;;;2.00;99.90;;;;;;5052728;28;20674;-80
2024/01/22 09:18:40;;;;;;;14.87;6.10;;;2.10;99.90;;;;;;5052625;28;20198;-81
2024/01/22 09:21:28;;;;;;;15.70;6.60;;;2.10;99.90;;;;;;5039584;28;20202;-81
2024/01/22 09:24:15;;;;;;;13.97;6.00;;;2.10;99.90;;;;;;5053820;28;20209;-81
2024/01/22 09:27:04;;;;;;;12.50;5.90;;;2.30;99.90;;;;;;5054332;28;20563;-80
2024/01/22 09:29:52;;;;;;;13.07;5.63;;;2.30;99.90;;;;;;5038303;28;20195;-80
2024/01/22 09:32:40;;;;;;;13.90;6.00;;;2.40;99.90;;;;;;5037196;28;20191;-80
2024/01/22 09:35:27;;;;;;;19.13;6.30;;;2.40;99.90;;;;;;5053323;28;20191;-80
2024/01/22 09:38:15;;;;;;;13.03;5.80;;;2.50;99.90;;;;;;5052849;28;20249;-80
2024/01/22 09:41:02;;;;;;;11.87;5.80;;;2.70;99.90;;;;;;5038470;28;20198;-80
2024/01/22 09:43:50;;;;;;;11.67;5.43;;;2.70;99.90;;;;;;5038616;28;20244;-80
2024/01/22 09:46:37;;;;;;;13.40;5.60;;;2.60;99.90;;;;;;5038657;28;20474;-80
2024/01/22 09:49:25;;;;;;;10.97;5.90;;;2.60;99.90;;;;;;5038427;28;20196;-80
2024/01/22 09:52:16;;;;;;;11.87;5.70;;;2.60;99.90;;;;;;5052099;28;20285;-80
2024/01/22 09:55:04;;;;;;;11.93;5.90;;;2.60;99.90;;;;;;5037838;28;20641;-80
2024/01/22 09:57:53;;;;;;;14.20;5.83;;;2.50;99.90;;;;;;5036990;28;20317;-80
2024/01/22 10:00:42;;;;;;;12.03;5.53;;;2.60;99.90;;;;;;5055312;28;20637;-80
2024/01/22 10:03:32;;;;;;;13.93;6.07;;;2.70;99.90;;;;;;5052914;28;20192;-80
2024/01/22 10:06:21;;;;;;;11.67;5.43;;;2.70;99.90;;;;;;5051736;28;20222;-81
2024/01/22 10:09:10;;;;;;;13.93;6.57;;;2.70;99.90;;;;;;5037698;28;20569;-80
2024/01/22 10:11:57;;;;;;;12.50;6.17;;;2.70;99.90;;;;;;5037676;28;20219;-80
2024/01/22 10:14:45;;;;;;;12.60;5.63;;;2.80;99.90;;;;;;5052453;28;20201;-80
2024/01/22 10:17:33;;;;;;;11.10;5.20;;;2.90;99.90;;;;;;5037686;28;20198;-80
2024/01/22 10:20:24;;;;;;;11.37;5.67;;;2.90;99.90;;;;;;5037921;28;20194;-79
2024/01/22 10:23:12;;;;;;;11.40;5.90;;;2.90;99.90;;;;;;5038544;28;20609;-80
2024/01/22 10:26:06;;;;;;;13.80;5.23;;;3.00;99.90;;;;;;5051671;28;20686;-79
2024/01/22 10:29:10;;;;;;;12.07;5.60;;;3.00;99.90;;;;;;5051814;28;20570;-80
2024/01/22 10:31:59;;;;;;;11.37;5.40;;;3.10;99.90;;;;;;5051454;28;20309;-80
2024/01/22 10:34:50;;;;;;;13.47;5.27;;;3.00;99.90;;;;;;5052792;28;20203;-80
2024/01/22 10:37:38;;;;;;;12.47;5.97;;;3.10;99.90;;;;;;5037613;28;20191;-80
2024/01/22 10:40:31;;;;;;;11.17;5.63;;;3.10;99.90;;;;;;5052757;28;20278;-80
2024/01/22 10:43:29;;;;;;;13.00;5.83;;;3.10;99.90;;;;;;5052834;28;20206;-80
2024/01/22 10:46:19;;;;;;;13.50;5.73;;;3.00;99.90;;;;;;5038368;28;20684;-80
2024/01/22 10:49:07;;;;;;;12.37;6.17;;;3.10;99.90;;;;;;5052603;28;20193;-80
2024/01/22 10:52:02;;;;;;;13.20;5.70;;;3.10;99.90;;;;;;5052458;28;20660;-80
2024/01/22 10:54:50;;;;;;;11.97;5.33;;;3.20;99.90;;;;;;5057638;28;20194;-80
2024/01/22 10:57:41;;;;;;;12.90;6.13;;;3.30;99.90;;;;;;5042547;28;20227;-81
2024/01/22 11:00:30;;;;;;;13.53;5.67;;;3.30;99.90;;;;;;5056074;28;20574;-81
2024/01/22 11:03:19;;;;;;;11.77;5.53;;;3.30;99.90;;;;;;5040639;28;20194;-80
2024/01/22 11:06:09;;;;;;;12.63;5.70;;;3.30;99.90;;;;;;5041030;28;20245;-81
2024/01/22 11:08:58;;;;;;;14.00;6.03;;;3.40;99.90;;;;;;5055806;28;20287;-81
2024/01/22 11:11:48;;;;;;;13.97;5.70;;;3.60;99.90;;;;;;5055929;28;20222;-81
2024/01/22 11:14:41;;;;;;;11.80;5.43;;;3.60;99.90;;;;;;5041600;28;20187;-81
2024/01/22 11:17:28;;;;;;;12.60;5.60;;;3.70;99.90;;;;;;5040052;28;20203;-81
2024/01/22 11:20:23;;;;;;;9.63;4.70;;;3.90;99.90;;;;;;5055527;28;20566;-81
2024/01/22 11:23:16;;;;;;;12.77;5.80;;;3.90;99.90;;;;;;5055519;28;20191;-80
2024/01/22 11:26:10;;;;;;;10.13;5.50;;;4.00;99.90;;;;;;5042179;28;20266;-81
2024/01/22 11:29:13;;;;;;;13.50;5.13;;;4.10;99.90;;;;;;5056007;28;20210;-81
2024/01/22 11:32:23;;;;;;;13.07;5.30;;;4.20;99.90;;;;;;5055450;28;20282;-81
2024/01/22 11:35:11;;;;;;;10.90;4.77;;;4.30;99.90;;;;;;5055739;28;20675;-80
2024/01/22 11:38:14;;;;;;;9.00;4.70;;;4.50;99.90;;;;;;5055897;28;20183;-80
2024/01/22 11:41:01;;;;;;;9.83;4.87;;;4.60;99.90;;;;;;5039473;28;20204;-81
2024/01/22 11:43:48;;;;;;;10.23;4.80;;;4.80;99.90;;;;;;5039852;28;20190;-81
2024/01/22 11:46:36;;;;;;;9.37;4.70;;;4.90;99.90;;;;;;5055560;28;20214;-80
2024/01/22 11:49:23;;;;;;;9.30;4.47;;;5.00;99.90;;;;;;5041322;28;20201;-81
2024/01/22 11:52:23;;;;;;;10.77;4.70;;;5.10;99.90;;;;;;5039691;28;20571;-81
2024/01/22 11:55:12;;;;;;;9.73;4.53;;;5.20;99.90;;;;;;5040904;28;20682;-81
2024/01/22 11:57:59;;;;;;;8.53;4.00;;;5.40;99.90;;;;;;5054131;28;20221;-81
2024/01/22 12:00:47;;;;;;;10.13;3.97;;;5.50;99.90;;;;;;5040557;28;20191;-81
2024/01/22 12:03:34;;;;;;;9.73;3.60;;;5.60;99.90;;;;;;5054215;28;20244;-81
2024/01/22 12:06:21;;;;;;;8.10;3.97;;;5.60;99.30;;;;;;5038989;28;20238;-80
2024/01/22 12:09:09;;;;;;;8.03;4.07;;;5.70;98.10;;;;;;5040521;28;20670;-80
2024/01/22 12:11:58;;;;;;;10.60;3.80;;;5.70;98.10;;;;;;5055499;28;20207;-82
2024/01/22 12:15:00;;;;;;;8.53;3.80;;;5.70;96.20;;;;;;5055356;28;20192;-81
2024/01/22 12:17:48;;;;;;;8.57;3.80;;;5.80;96.10;;;;;;5054308;28;20225;-80
2024/01/22 12:20:37;;;;;;;8.30;3.90;;;5.70;95.80;;;;;;5040711;28;20619;-81
2024/01/22 12:23:42;;;;;;;9.17;3.97;;;5.80;95.80;;;;;;5053748;28;20226;-81
2024/01/22 12:26:30;;;;;;;8.30;3.60;;;5.90;95.20;;;;;;5054633;28;20226;-81
2024/01/22 12:29:27;;;;;;;11.63;3.90;;;5.80;93.90;;;;;;5055003;28;20197;-81
2024/01/22 12:32:17;;;;;;;7.23;3.77;;;5.90;93.50;;;;;;5054141;28;20206;-81
2024/01/22 12:35:08;;;;;;;8.33;3.67;;;5.90;93.10;;;;;;5040024;28;20195;-81
2024/01/22 12:37:56;;;;;;;10.60;3.87;;;5.90;92.70;;;;;;5039997;28;20272;-81
2024/01/22 12:40:43;;;;;;;10.03;4.10;;;5.90;93.30;;;;;;5053238;28;20572;-80
2024/01/22 12:43:32;;;;;;;7.70;3.77;;;5.80;93.40;;;;;;5040074;28;20191;-80
2024/01/22 12:46:19;;;;;;;8.27;3.63;;;5.80;93.20;;;;;;5054276;28;20308;-81
2024/01/22 12:49:07;;;;;;;10.03;4.40;;;5.90;92.80;;;;;;5039415;28;20199;-81
2024/01/22 12:51:55;;;;;;;8.83;3.93;;;5.80;92.80;;;;;;5054871;28;20579;-80
2024/01/22 12:54:42;;;;;;;8.57;3.67;;;5.90;92.50;;;;;;5041185;28;20559;-79
2024/01/22 12:57:30;;;;;;;7.73;3.67;;;5.80;92.30;;;;;;5055713;28;20222;-80
2024/01/22 13:00:18;;;;;;;9.27;3.87;;;5.80;92.50;;;;;;5040233;28;20491;-80
2024/01/22 13:03:06;;;;;;;7.50;3.80;;;5.80;92.20;;;;;;5039448;28;20281;-80
2024/01/22 13:05:53;;;;;;;9.43;4.20;;;5.80;92.30;;;;;;5039349;28;20281;-80
2024/01/22 13:08:41;;;;;;;8.23;3.87;;;5.80;92.40;;;;;;5053521;28;20196;-80
2024/01/22 13:11:28;;;;;;;8.57;3.93;;;5.80;92.70;;;;;;5054552;28;20215;-81
2024/01/22 13:14:17;;;;;;;10.07;4.13;;;5.70;92.80;;;;;;5038407;28;20730;-82
2024/01/22 13:17:10;;;;;;;7.27;3.70;;;5.70;92.50;;;;;;5051031;28;20762;-80
2024/01/22 13:19:57;;;;;;;9.30;4.23;;;5.80;91.80;;;;;;5050996;28;20196;-81
2024/01/22 13:22:44;;;;;;;10.17;4.47;;;5.70;92.90;;;;;;5052585;28;20258;-80
2024/01/22 13:25:32;;;;;;;9.70;4.10;;;5.70;92.30;;;;;;5051119;28;20281;-80
2024/01/22 13:28:20;;;;;;;10.13;3.73;;;5.70;92.40;;;;;;5053028;28;20538;-80
2024/01/22 13:31:08;;;;;;;7.50;3.70;;;5.70;91.60;;;;;;5052095;28;20328;-80
2024/01/22 13:33:57;;;;;;;8.60;4.10;;;5.70;91.80;;;;;;5038773;28;20197;-80
2024/01/22 13:36:45;;;;;;;7.53;3.80;;;5.70;92.40;;;;;;5051930;28;20217;-80
2024/01/22 13:39:33;;;;;;;10.47;4.43;;;5.70;91.60;;;;;;5052486;28;20208;-80
2024/01/22 13:42:25;;;;;;;11.20;4.10;;;5.80;91.30;;;;;;5051074;28;20212;-80
2024/01/22 13:45:14;;;;;;;7.80;3.83;;;5.80;91.70;;;;;;5052387;28;20686;-80
2024/01/22 13:48:03;;;;;;;10.20;4.10;;;5.80;91.50;;;;;;5052747;28;20192;-81
2024/01/22 13:50:52;;;;;;;8.77;4.30;;;5.70;92.10;;;;;;5052296;28;20270;-80
2024/01/22 13:53:40;;;;;;;10.10;4.50;;;5.70;91.60;;;;;;5052170;28;20226;-80
2024/01/22 13:56:28;;;;;;;10.53;4.40;;;5.70;91.60;;;;;;5052632;28;20217;-80
2024/01/22 13:59:16;;;;;;;11.00;4.03;;;5.70;92.40;;;;;;5051599;28;20198;-80
2024/01/22 14:02:04;;;;;;;9.50;4.03;;;5.80;92.50;;;;;;5053168;28;20194;-80
2024/01/22 14:04:52;;;;;;;9.83;4.47;;;5.70;91.70;;;;;;5050604;28;20692;-81
2024/01/22 14:07:39;;;;;;;7.47;3.93;;;5.70;92.60;;;;;;5053507;28;20210;-80
2024/01/22 14:10:27;;;;;;;11.30;4.27;;;5.70;92.70;;;;;;5052786;28;20203;-80
2024/01/22 14:13:14;;;;;;;8.80;4.57;;;5.70;92.60;;;;;;5051811;28;20217;-80
2024/01/22 14:16:03;;;;;;;8.77;4.13;;;5.80;92.20;;;;;;5052454;28;20194;-80
2024/01/22 14:18:52;;;;;;;9.60;4.30;;;5.70;92.10;;;;;;5050790;28;20611;-79
2024/01/22 14:21:40;;;;;;;11.20;4.20;;;5.80;92.40;;;;;;5050582;28;20635;-80
2024/01/22 14:24:28;;;;;;;10.40;4.27;;;5.80;91.50;;;;;;5051219;28;20539;-80
2024/01/22 14:27:15;;;;;;;9.17;4.17;;;5.80;92.50;;;;;;5051400;28;20635;-80
2024/01/22 14:30:05;;;;;;;8.77;4.13;;;5.80;92.00;;;;;;5050636;28;20222;-79
2024/01/22 14:32:53;;;;;;;8.70;3.90;;;5.80;92.20;;;;;;5051645;28;20672;-81